Time;durP1;ratioP1;P1;durP2;ratioP2;P2;SDS_P1;SDS_P2;PMS_P1;PMS_P2;Temp;Humidity;BMP_temperature;BMP_pressure;BME280_temperature;BME280_humidity;BME280_pressure;Samples;Min_cycle;Max_cycle;Signal;HPM_P1;HPM_P2
2022/11/15 00:00:10;;;;;;;291.50;57.40;;;7.30;14.30;;;;;;5074770;28;20205;-81
2022/11/15 00:02:37;;;;;;;219.83;53.10;;;7.20;1.00;;;;;;5074934;28;20251;-81
2022/11/15 00:05:05;;;;;;;293.83;54.90;;;7.20;1.00;;;;;;5074952;28;20208;-81
2022/11/15 00:07:33;;;;;;;439.07;66.17;;;7.20;22.60;;;;;;5074238;28;20196;-80
2022/11/15 00:10:00;;;;;;;262.67;53.07;;;7.20;67.60;;;;;;5074541;28;20673;-81
2022/11/15 00:12:28;;;;;;;202.80;50.03;;;7.20;1.00;;;;;;5074585;28;20197;-81
2022/11/15 00:14:55;;;;;;;255.83;49.97;;;7.10;1.00;;;;;;5074800;28;20291;-81
2022/11/15 00:17:22;;;;;;;206.53;49.70;;;7.20;1.00;;;;;;5074764;28;20200;-80
2022/11/15 00:19:49;;;;;;;203.37;47.00;;;7.10;1.00;;;;;;5074389;28;20192;-81
2022/11/15 00:22:16;;;;;;;266.43;50.73;;;7.10;1.00;;;;;;5074595;28;20200;-80
2022/11/15 00:24:45;;;;;;;287.90;52.03;;;7.10;1.00;;;;;;5074557;28;20201;-80
2022/11/15 00:27:12;;;;;;;407.10;60.57;;;7.00;1.00;;;;;;5074793;28;20196;-81
2022/11/15 00:29:43;;;;;;;438.50;62.67;;;7.00;1.00;;;;;;5074363;28;20223;-80
2022/11/15 00:32:10;;;;;;;351.80;55.73;;;7.00;1.00;;;;;;5054393;28;20232;-80
2022/11/15 00:34:37;;;;;;;392.87;57.70;;;7.00;1.00;;;;;;5069977;28;20426;-80
2022/11/15 00:37:04;;;;;;;321.43;55.23;;;6.90;1.00;;;;;;5074408;28;20202;-80
2022/11/15 00:39:31;;;;;;;317.27;52.67;;;6.90;1.00;;;;;;5073823;28;20554;-81
2022/11/15 00:42:00;;;;;;;369.70;54.90;;;6.90;1.00;;;;;;5074262;28;20196;-80
2022/11/15 00:44:27;;;;;;;409.70;60.63;;;6.90;1.00;;;;;;5074215;28;20656;-81
2022/11/15 00:46:54;;;;;;;185.23;44.20;;;6.90;1.00;;;;;;5072962;28;20199;-80
2022/11/15 00:49:21;;;;;;;376.43;58.90;;;6.90;1.00;;;;;;5073622;28;20222;-81
2022/11/15 00:51:48;;;;;;;366.07;56.17;;;6.90;1.00;;;;;;5073853;28;20680;-80
2022/11/15 00:54:15;;;;;;;336.53;53.87;;;6.80;1.00;;;;;;5074227;28;20203;-80
2022/11/15 00:56:42;;;;;;;274.73;50.40;;;6.90;1.00;;;;;;5073780;28;20184;-81
2022/11/15 00:59:11;;;;;;;301.07;50.47;;;6.90;1.00;;;;;;5073954;28;20188;-81
2022/11/15 01:01:38;;;;;;;180.80;45.83;;;6.90;1.00;;;;;;5073866;28;20573;-81
2022/11/15 01:04:06;;;;;;;338.80;54.20;;;6.90;1.00;;;;;;5073510;28;20192;-81
2022/11/15 01:06:33;;;;;;;342.63;56.20;;;6.90;1.00;;;;;;5073271;28;20622;-80
2022/11/15 01:09:00;;;;;;;255.77;50.07;;;6.90;1.00;;;;;;5073690;28;20219;-81
2022/11/15 01:11:27;;;;;;;445.73;61.13;;;6.90;1.00;;;;;;5073661;28;20196;-80
2022/11/15 01:13:56;;;;;;;305.97;56.17;;;6.90;1.00;;;;;;5073290;28;20555;-80
2022/11/15 01:16:24;;;;;;;367.60;56.73;;;6.90;1.00;;;;;;5073620;28;20197;-81
2022/11/15 01:18:52;;;;;;;415.83;60.93;;;7.00;1.00;;;;;;5073195;28;20199;-80
2022/11/15 01:21:20;;;;;;;362.60;57.60;;;7.00;1.00;;;;;;5073272;28;20201;-81
2022/11/15 01:23:47;;;;;;;314.23;54.63;;;7.00;1.00;;;;;;5073522;28;20555;-80
2022/11/15 01:26:16;;;;;;;471.80;64.63;;;7.00;1.00;;;;;;5073298;28;20196;-80
2022/11/15 01:28:43;;;;;;;253.07;49.53;;;7.00;1.00;;;;;;5072947;28;20682;-80
2022/11/15 01:31:15;;;;;;;389.30;60.70;;;7.10;1.00;;;;;;5072807;28;20207;-80
2022/11/15 01:33:43;;;;;;;180.80;45.80;;;7.00;1.00;;;;;;5073302;28;20172;-80
2022/11/15 01:36:14;;;;;;;323.90;53.53;;;7.00;99.90;;;;;;5072888;28;20207;-80
2022/11/15 01:38:41;;;;;;;186.90;47.30;;;7.00;99.90;;;;;;5073215;28;21018;-80
2022/11/15 01:41:15;;;;;;;509.03;65.93;;;7.00;99.90;;;;;;5072852;28;20661;-80
2022/11/15 01:43:43;;;;;;;316.73;52.20;;;6.90;1.00;;;;;;5073083;28;20180;-81
2022/11/15 01:46:29;;;;;;;192.53;46.83;;;7.00;1.00;;;;;;5072373;28;20648;-80
2022/11/15 01:49:01;;;;;;;305.93;51.83;;;7.00;1.00;;;;;;5072583;28;20672;-80
2022/11/15 01:51:33;;;;;;;170.80;44.00;;;7.00;1.00;;;;;;5072980;28;20183;-80
2022/11/15 01:54:04;;;;;;;160.40;44.00;;;7.00;1.00;;;;;;5072657;28;20191;-80
2022/11/15 01:56:37;;;;;;;437.80;61.30;;;7.00;1.00;;;;;;5072912;28;20176;-81
2022/11/15 01:59:07;;;;;;;250.17;46.50;;;7.00;1.00;;;;;;5072634;28;20203;-81
2022/11/15 02:01:35;;;;;;;287.80;47.97;;;7.00;1.00;;;;;;5072418;28;20188;-80
2022/11/15 02:04:07;;;;;;;243.47;48.30;;;7.00;1.00;;;;;;5072237;28;20676;-80
2022/11/15 02:06:36;;;;;;;472.80;62.93;;;7.00;1.00;;;;;;5072849;28;20183;-80
2022/11/15 02:09:04;;;;;;;332.37;51.13;;;7.00;1.00;;;;;;5072383;28;20212;-80
2022/11/15 02:11:32;;;;;;;301.80;48.50;;;7.00;1.00;;;;;;5072107;28;20207;-81
2022/11/15 02:14:01;;;;;;;249.10;46.33;;;7.00;1.00;;;;;;5072112;28;20198;-80
2022/11/15 02:16:35;;;;;;;221.27;44.70;;;6.90;99.90;;;;;;5072695;28;20223;-81
2022/11/15 02:19:14;;;;;;;377.03;52.67;;;6.90;99.90;;;;;;5071816;28;20267;-80
2022/11/15 02:21:46;;;;;;;164.47;41.60;;;6.90;1.00;;;;;;5052317;28;20657;-80
2022/11/15 02:24:47;;;;;;;341.80;50.37;;;6.90;1.00;;;;;;5052542;28;20212;-80
2022/11/15 02:28:00;;;;;;;351.27;52.80;;;6.90;1.00;;;;;;5052353;28;20194;-80
2022/11/15 02:30:36;;;;;;;229.50;45.10;;;6.90;99.90;;;;;;5052475;28;20197;-80
2022/11/15 02:33:09;;;;;;;293.57;45.60;;;6.90;99.90;;;;;;5051960;28;20318;-80
2022/11/15 02:35:45;;;;;;;249.40;43.43;;;6.90;99.90;;;;;;5057217;28;20185;-79
2022/11/15 02:38:20;;;;;;;373.77;54.23;;;6.80;99.90;;;;;;5072116;28;20235;-80
2022/11/15 02:40:55;;;;;;;195.33;43.63;;;6.80;99.90;;;;;;5072169;28;20270;-80
2022/11/15 02:46:21;;;;;;;351.20;49.83;;;6.80;1.00;;;;;;5072179;28;20705;-80
2022/11/15 02:48:48;;;;;;;251.00;46.57;;;6.80;1.00;;;;;;5072374;28;20208;-80
2022/11/15 02:51:17;;;;;;;389.10;53.63;;;6.80;99.90;;;;;;5071988;28;20699;-80
2022/11/15 02:53:44;;;;;;;191.63;41.40;;;6.80;99.90;;;;;;5071677;28;20188;-80
2022/11/15 02:56:13;;;;;;;191.97;40.63;;;6.90;99.90;;;;;;5072294;28;20201;-80
2022/11/15 02:58:59;;;;;;;226.53;43.70;;;6.90;99.90;;;;;;5071939;28;20246;-80
2022/11/15 03:01:43;;;;;;;289.20;44.97;;;6.80;99.90;;;;;;5071880;28;20268;-80
2022/11/15 03:04:21;;;;;;;294.83;46.53;;;6.80;99.90;;;;;;5071694;28;20543;-80
2022/11/15 03:06:53;;;;;;;223.50;42.80;;;6.80;99.90;;;;;;5072178;28;20207;-80
2022/11/15 03:09:33;;;;;;;168.07;38.83;;;6.70;99.90;;;;;;5072393;28;20204;-79
2022/11/15 03:12:05;;;;;;;218.37;41.17;;;6.70;99.90;;;;;;5075743;28;20184;-80
2022/11/15 03:14:35;;;;;;;249.67;44.23;;;6.70;99.90;;;;;;5075631;28;20193;-80
2022/11/15 03:17:14;;;;;;;394.80;52.50;;;6.70;99.90;;;;;;5075864;28;20184;-80
2022/11/15 03:19:47;;;;;;;316.47;47.63;;;6.70;99.90;;;;;;5075857;28;20192;-80
2022/11/15 03:22:18;;;;;;;187.83;40.90;;;6.60;99.90;;;;;;5075519;28;20534;-80
2022/11/15 03:24:48;;;;;;;285.10;46.40;;;6.60;99.90;;;;;;5075364;28;20184;-80
2022/11/15 03:27:21;;;;;;;306.23;45.67;;;6.60;99.90;;;;;;5075446;28;20248;-80
2022/11/15 03:29:54;;;;;;;164.17;38.37;;;6.60;99.90;;;;;;5075333;28;20210;-80
2022/11/15 03:32:26;;;;;;;254.20;46.63;;;6.60;99.90;;;;;;5075308;28;20229;-80
2022/11/15 03:34:58;;;;;;;275.73;44.40;;;6.60;99.90;;;;;;5075633;28;20199;-81
2022/11/15 03:37:31;;;;;;;319.57;48.50;;;6.60;99.90;;;;;;5075732;28;20184;-80
2022/11/15 03:39:58;;;;;;;216.40;41.13;;;6.60;99.90;;;;;;5075727;28;20197;-80
2022/11/15 03:42:32;;;;;;;204.27;42.43;;;6.60;99.90;;;;;;5075488;28;20201;-80
2022/11/15 03:45:06;;;;;;;202.30;40.80;;;6.60;99.90;;;;;;5074884;28;20181;-81
2022/11/15 03:47:39;;;;;;;265.13;43.90;;;6.60;99.90;;;;;;5075060;28;20621;-81
2022/11/15 03:50:11;;;;;;;295.97;45.47;;;6.60;99.90;;;;;;5074685;28;20196;-80
2022/11/15 03:52:40;;;;;;;136.07;37.27;;;6.60;99.90;;;;;;5075151;28;20192;-81
2022/11/15 03:55:11;;;;;;;306.90;45.63;;;6.60;99.90;;;;;;5075083;28;20204;-80
2022/11/15 03:57:38;;;;;;;181.27;38.63;;;6.50;99.90;;;;;;5074914;28;20181;-81
2022/11/15 04:00:07;;;;;;;209.80;41.27;;;6.50;99.90;;;;;;5074885;28;20195;-80
2022/11/15 04:02:35;;;;;;;383.70;49.97;;;6.50;99.90;;;;;;5055050;28;20534;-80
2022/11/15 04:05:02;;;;;;;164.93;39.37;;;6.60;99.90;;;;;;5055014;28;20206;-80
2022/11/15 04:07:29;;;;;;;347.53;49.03;;;6.60;99.90;;;;;;5054997;28;20200;-80
2022/11/15 04:10:06;;;;;;;203.60;40.97;;;6.60;99.90;;;;;;5055068;28;20703;-80
2022/11/15 04:12:35;;;;;;;293.30;44.70;;;6.60;99.90;;;;;;5074437;28;20183;-80
2022/11/15 04:15:09;;;;;;;134.03;36.70;;;6.60;99.90;;;;;;5074526;28;20215;-81
2022/11/15 04:17:40;;;;;;;126.90;36.37;;;6.60;99.90;;;;;;5074587;28;20588;-80
2022/11/15 04:25:40;;;;;;;181.47;38.50;;;6.50;1.00;;;;;;5074047;28;20187;-80
2022/11/15 04:28:08;;;;;;;365.80;50.33;;;6.50;1.00;;;;;;5074058;28;20228;-80
2022/11/15 04:30:35;;;;;;;321.03;45.97;;;6.50;99.90;;;;;;5074509;28;20678;-80
2022/11/15 04:33:04;;;;;;;236.83;41.70;;;6.50;1.00;;;;;;5074030;28;20240;-80
2022/11/15 04:35:31;;;;;;;208.57;40.43;;;6.40;1.00;;;;;;5074469;28;20192;-80
2022/11/15 04:37:58;;;;;;;179.60;39.17;;;6.40;1.00;;;;;;5074363;28;20206;-80
2022/11/15 04:40:25;;;;;;;260.73;43.07;;;6.40;1.00;;;;;;5074092;28;20241;-80
2022/11/15 04:42:52;;;;;;;163.67;36.10;;;6.30;96.40;;;;;;5074050;28;20181;-81
2022/11/15 04:45:20;;;;;;;164.50;39.40;;;6.40;99.90;;;;;;5074016;28;20671;-80
2022/11/15 04:47:47;;;;;;;138.90;36.23;;;6.30;99.90;;;;;;5073939;28;20199;-80
2022/11/15 04:50:16;;;;;;;168.77;37.37;;;6.40;99.90;;;;;;5073255;28;20214;-80
2022/11/15 04:52:50;;;;;;;344.43;45.77;;;6.40;99.90;;;;;;5073186;28;20195;-81
2022/11/15 04:55:17;;;;;;;148.03;35.27;;;6.50;79.80;;;;;;5074126;28;20226;-80
2022/11/15 04:57:45;;;;;;;194.07;39.17;;;6.40;1.00;;;;;;5073681;28;20678;-81
2022/11/15 05:00:15;;;;;;;247.03;41.57;;;6.40;1.00;;;;;;5073666;28;20191;-81
2022/11/15 05:05:28;;;;;;;219.10;39.97;;;6.40;99.90;;;;;;5073922;28;20182;-81
2022/11/15 05:07:55;;;;;;;195.87;37.97;;;6.40;99.90;;;;;;5074042;28;20197;-81
2022/11/15 05:10:22;;;;;;;180.53;36.50;;;6.40;15.40;;;;;;5073579;28;20573;-80
2022/11/15 05:12:49;;;;;;;149.63;35.73;;;6.40;1.00;;;;;;5073672;28;20194;-81
2022/11/15 05:15:16;;;;;;;108.90;33.83;;;6.40;94.70;;;;;;5073340;28;20199;-81
2022/11/15 05:17:43;;;;;;;128.83;34.13;;;6.40;33.00;;;;;;5073279;28;20193;-81
2022/11/15 05:20:11;;;;;;;123.40;33.43;;;6.40;1.00;;;;;;5073570;28;20586;-81
2022/11/15 05:22:40;;;;;;;203.23;36.73;;;6.30;26.60;;;;;;5073569;28;20195;-81
2022/11/15 05:25:08;;;;;;;310.77;45.47;;;6.30;58.10;;;;;;5073119;28;20198;-81
2022/11/15 05:27:35;;;;;;;124.17;33.97;;;6.30;99.90;;;;;;5073057;28;20196;-81
2022/11/15 05:30:03;;;;;;;161.17;34.80;;;6.30;99.90;;;;;;5072791;28;20667;-80
2022/11/15 05:32:30;;;;;;;311.57;44.93;;;6.30;99.90;;;;;;5071635;28;20233;-81
2022/11/15 05:34:57;;;;;;;230.43;39.73;;;6.30;99.90;;;;;;5072974;28;20641;-81
2022/11/15 05:37:24;;;;;;;203.07;38.47;;;6.30;99.90;;;;;;5072311;28;20196;-82
2022/11/15 05:39:53;;;;;;;141.90;36.63;;;6.40;1.00;;;;;;5073123;28;20200;-80
2022/11/15 05:42:20;;;;;;;260.60;39.13;;;6.40;1.00;;;;;;5072790;28;20947;-80
2022/11/15 05:44:49;;;;;;;312.00;44.17;;;6.40;1.00;;;;;;5072772;28;20561;-80
2022/11/15 05:47:21;;;;;;;350.43;43.70;;;6.30;1.00;;;;;;5072753;28;20200;-80
2022/11/15 05:49:50;;;;;;;217.83;38.03;;;6.40;1.00;;;;;;5073031;28;20214;-81
2022/11/15 05:52:22;;;;;;;137.83;33.63;;;6.40;1.00;;;;;;5072689;28;20206;-80
2022/11/15 05:54:50;;;;;;;168.43;36.13;;;6.30;1.00;;;;;;5072937;28;20179;-80
2022/11/15 05:57:19;;;;;;;352.73;45.87;;;6.30;1.00;;;;;;5072349;28;20552;-81
2022/11/15 05:59:46;;;;;;;133.90;32.20;;;6.30;1.00;;;;;;5072589;28;20203;-80
2022/11/15 06:02:13;;;;;;;183.50;35.43;;;6.30;1.00;;;;;;5072522;28;20253;-80
2022/11/15 06:04:40;;;;;;;324.07;41.60;;;6.20;1.00;;;;;;5071701;28;20241;-81
2022/11/15 06:07:08;;;;;;;374.20;45.40;;;6.30;1.00;;;;;;5071045;28;20553;-80
2022/11/15 06:09:35;;;;;;;159.10;32.50;;;6.20;1.00;;;;;;5072372;28;20693;-81
2022/11/15 06:12:02;;;;;;;348.70;43.07;;;6.20;1.00;;;;;;5071932;28;20195;-81
2022/11/15 06:14:31;;;;;;;391.47;45.63;;;6.20;1.00;;;;;;5071990;28;20195;-85
2022/11/15 06:16:58;;;;;;;147.53;32.83;;;6.30;1.00;;;;;;5072012;28;20596;-85
2022/11/15 06:19:25;;;;;;;181.00;35.57;;;6.30;1.00;;;;;;5072797;28;20225;-84
2022/11/15 06:21:52;;;;;;;162.00;34.67;;;6.30;1.00;;;;;;5072579;28;20845;-84
2022/11/15 06:24:20;;;;;;;196.73;32.10;;;6.40;1.00;;;;;;5072399;28;20202;-85
2022/11/15 06:26:47;;;;;;;340.73;41.77;;;6.30;1.00;;;;;;5072621;28;20222;-84
2022/11/15 06:29:14;;;;;;;162.13;34.53;;;6.30;1.00;;;;;;5072250;28;20202;-85
2022/11/15 06:31:42;;;;;;;163.60;32.87;;;6.20;1.00;;;;;;5072182;28;20681;-84
2022/11/15 06:34:10;;;;;;;222.17;36.37;;;6.20;1.00;;;;;;5072299;28;20189;-84
2022/11/15 06:36:37;;;;;;;270.13;40.13;;;6.30;1.00;;;;;;5072213;28;20210;-84
2022/11/15 06:39:05;;;;;;;424.57;54.60;;;6.30;1.00;;;;;;5072127;28;20194;-85
2022/11/15 06:41:35;;;;;;;229.90;36.40;;;6.30;1.00;;;;;;5072788;28;20204;-84
2022/11/15 06:44:02;;;;;;;203.73;33.73;;;6.30;1.00;;;;;;5072676;28;20198;-84
2022/11/15 06:46:30;;;;;;;349.57;40.70;;;6.30;1.00;;;;;;5072248;28;20205;-83
2022/11/15 06:48:59;;;;;;;161.07;33.07;;;6.30;1.00;;;;;;5073092;28;20239;-85
2022/11/15 06:53:56;;;;;;;464.23;49.67;;;6.30;1.00;;;;;;5065824;28;20742;-83
2022/11/15 06:56:23;;;;;;;320.17;40.43;;;6.30;1.00;;;;;;5063107;28;20220;-84
2022/11/15 06:58:50;;;;;;;202.53;34.33;;;6.30;1.00;;;;;;5055752;28;20194;-85
2022/11/15 07:01:17;;;;;;;346.63;39.83;;;6.30;1.00;;;;;;5058400;28;20239;-84
2022/11/15 07:03:45;;;;;;;218.90;33.70;;;6.30;1.00;;;;;;5074389;28;20191;-84
2022/11/15 07:06:14;;;;;;;320.53;41.43;;;6.30;99.90;;;;;;5075533;28;20230;-85
2022/11/15 07:08:42;;;;;;;363.70;43.03;;;6.30;1.00;;;;;;5075962;28;20249;-84
2022/11/15 07:11:09;;;;;;;423.60;47.13;;;6.30;1.00;;;;;;5075462;28;20620;-84
2022/11/15 07:13:37;;;;;;;211.03;83.60;;;6.40;1.00;;;;;;5074282;28;20192;-84
2022/11/15 07:16:06;;;;;;;404.37;60.63;;;6.50;1.00;;;;;;5056933;28;20195;-85
2022/11/15 07:18:35;;;;;;;141.73;38.03;;;6.50;1.00;;;;;;5055639;28;20203;-84
2022/11/15 07:21:03;;;;;;;343.73;41.10;;;6.50;99.90;;;;;;5055651;28;20200;-83
2022/11/15 07:23:32;;;;;;;222.27;34.80;;;6.60;99.90;;;;;;5055695;28;20199;-84
2022/11/15 07:26:00;;;;;;;242.70;37.93;;;6.60;99.90;;;;;;5077447;28;20252;-82
2022/11/15 07:28:28;;;;;;;212.93;37.07;;;6.60;99.90;;;;;;5075207;28;20187;-82
2022/11/15 07:30:55;;;;;;;193.80;35.87;;;6.60;99.90;;;;;;5075385;28;20227;-83
2022/11/15 07:33:22;;;;;;;298.50;40.80;;;6.60;99.90;;;;;;5074752;28;20195;-82
2022/11/15 07:35:50;;;;;;;212.10;38.93;;;6.70;99.90;;;;;;5075080;28;20196;-84
2022/11/15 07:38:19;;;;;;;124.13;32.20;;;6.70;99.90;;;;;;5074868;28;20201;-83
2022/11/15 07:40:56;;;;;;;260.03;38.87;;;6.70;99.90;;;;;;5064632;28;20199;-82
2022/11/15 07:43:23;;;;;;;210.30;33.73;;;6.80;99.90;;;;;;5072689;28;20215;-83
2022/11/15 07:45:51;;;;;;;229.50;34.93;;;6.80;1.00;;;;;;5074922;28;20241;-83
2022/11/15 07:48:18;;;;;;;307.40;38.40;;;6.80;1.00;;;;;;5074645;28;20241;-82
2022/11/15 07:50:45;;;;;;;312.23;39.43;;;6.80;1.00;;;;;;5074783;28;20215;-82
2022/11/15 07:53:13;;;;;;;139.60;32.80;;;6.80;1.00;;;;;;5074157;28;20214;-82
2022/11/15 07:55:42;;;;;;;173.30;32.50;;;6.90;1.00;;;;;;5074321;28;20242;-82
2022/11/15 07:58:12;;;;;;;226.83;36.03;;;7.00;1.00;;;;;;5076435;28;20189;-83
2022/11/15 08:00:39;;;;;;;174.83;31.90;;;7.00;1.00;;;;;;5074709;28;20290;-83
2022/11/15 08:03:09;;;;;;;139.70;31.87;;;7.10;1.00;;;;;;5074471;28;20193;-82
2022/11/15 08:05:38;;;;;;;275.80;61.77;;;7.10;1.00;;;;;;5074926;28;20195;-82
2022/11/15 08:08:05;;;;;;;325.93;69.27;;;7.20;1.00;;;;;;5075142;28;20231;-83
2022/11/15 08:10:33;;;;;;;246.93;43.00;;;7.20;1.00;;;;;;5074527;28;20220;-82
2022/11/15 08:13:01;;;;;;;270.50;45.43;;;7.30;1.00;;;;;;5074252;28;20202;-82
2022/11/15 08:15:30;;;;;;;191.87;35.87;;;7.40;1.00;;;;;;5075641;28;20287;-83
2022/11/15 08:17:58;;;;;;;313.90;58.80;;;7.50;1.00;;;;;;5074408;28;20202;-85
2022/11/15 08:20:29;;;;;;;447.13;96.23;;;7.50;1.00;;;;;;5074576;28;20208;-83
2022/11/15 08:22:56;;;;;;;252.53;65.73;;;7.60;99.90;;;;;;5074473;28;20211;-82
2022/11/15 08:25:26;;;;;;;322.83;60.83;;;7.60;99.90;;;;;;5074289;28;20585;-83
2022/11/15 08:27:54;;;;;;;172.83;34.50;;;7.60;99.90;;;;;;5074531;28;20196;-82
2022/11/15 08:30:21;;;;;;;165.03;35.20;;;7.70;99.90;;;;;;5074125;28;20712;-83
2022/11/15 08:32:50;;;;;;;328.20;40.37;;;7.70;99.90;;;;;;5073878;28;20204;-82
2022/11/15 08:35:17;;;;;;;170.30;33.13;;;7.70;99.90;;;;;;5073937;28;20197;-83
2022/11/15 08:37:45;;;;;;;225.77;34.00;;;7.80;99.90;;;;;;5074036;28;20190;-82
2022/11/15 08:40:13;;;;;;;230.67;35.73;;;7.90;99.90;;;;;;5074276;28;20203;-83
2022/11/15 08:42:41;;;;;;;209.70;35.93;;;7.90;99.90;;;;;;5073662;28;20204;-82
2022/11/15 08:45:09;;;;;;;173.50;40.53;;;8.00;99.90;;;;;;5073975;28;20687;-82
2022/11/15 08:47:36;;;;;;;337.93;55.70;;;8.10;99.90;;;;;;5074659;28;20204;-84
2022/11/15 08:50:05;;;;;;;241.53;43.30;;;8.20;31.00;;;;;;5074109;28;20659;-82
2022/11/15 08:52:32;;;;;;;230.10;39.20;;;8.20;1.00;;;;;;5073455;28;20223;-85
2022/11/15 08:54:59;;;;;;;180.07;34.33;;;8.20;1.00;;;;;;5073596;28;20192;-82
2022/11/15 08:57:29;;;;;;;336.17;41.33;;;8.30;1.00;;;;;;5073185;28;20713;-85
2022/11/15 08:59:56;;;;;;;268.27;39.27;;;8.40;1.00;;;;;;5073467;28;20194;-84
2022/11/15 09:02:23;;;;;;;152.73;31.97;;;8.40;1.00;;;;;;5073624;28;20196;-83
2022/11/15 09:04:50;;;;;;;117.13;36.33;;;8.40;1.00;;;;;;5072962;28;20542;-83
2022/11/15 09:07:19;;;;;;;194.77;50.47;;;8.50;1.00;;;;;;5067281;28;20199;-83
2022/11/15 09:09:46;;;;;;;324.10;57.10;;;8.50;1.00;;;;;;5059633;28;20256;-83
2022/11/15 09:12:13;;;;;;;239.07;48.37;;;8.60;1.00;;;;;;5060245;28;20244;-84
2022/11/15 09:14:40;;;;;;;153.43;45.63;;;8.60;1.00;;;;;;5073349;28;20206;-84
2022/11/15 09:17:09;;;;;;;185.97;53.50;;;8.70;1.00;;;;;;5073222;28;20247;-84
2022/11/15 09:19:36;;;;;;;263.00;42.90;;;8.70;1.00;;;;;;5073345;28;20633;-83
2022/11/15 09:22:07;;;;;;;210.90;63.63;;;8.70;1.00;;;;;;5073249;28;20186;-85
2022/11/15 09:24:35;;;;;;;379.53;56.90;;;8.70;1.00;;;;;;5072734;28;20203;-84
2022/11/15 09:27:02;;;;;;;267.10;44.17;;;8.80;1.00;;;;;;5063171;28;20285;-84
2022/11/15 09:29:29;;;;;;;174.70;44.57;;;8.90;99.90;;;;;;5053045;28;20205;-84
2022/11/15 09:31:56;;;;;;;309.70;36.57;;;8.90;99.90;;;;;;5053239;28;20222;-82
2022/11/15 09:34:23;;;;;;;383.00;38.67;;;8.90;99.90;;;;;;5066550;28;20198;-83
2022/11/15 09:36:50;;;;;;;303.83;34.80;;;8.90;99.90;;;;;;5072862;28;20255;-84
2022/11/15 09:39:17;;;;;;;361.60;37.60;;;8.80;99.90;;;;;;5073020;28;20560;-82
2022/11/15 09:42:18;;;;;;;257.93;32.93;;;8.90;63.80;;;;;;5072984;28;20284;-84
2022/11/15 09:45:07;;;;;;;276.57;34.37;;;8.80;47.90;;;;;;5057528;28;20659;-84
2022/11/15 09:47:56;;;;;;;144.73;29.50;;;8.80;99.90;;;;;;5072501;28;20244;-83
2022/11/15 09:50:33;;;;;;;285.50;36.27;;;8.90;99.90;;;;;;5072612;28;20581;-84
2022/11/15 09:53:00;;;;;;;231.07;33.80;;;9.10;99.90;;;;;;5072081;28;20259;-84
2022/11/15 09:55:46;;;;;;;330.00;39.27;;;9.20;1.00;;;;;;5072804;28;20226;-84
2022/11/15 09:58:24;;;;;;;171.90;35.73;;;9.20;1.00;;;;;;5072242;28;20197;-83
2022/11/15 10:00:53;;;;;;;259.70;34.57;;;9.20;1.00;;;;;;5071865;28;20244;-83
2022/11/15 10:03:26;;;;;;;204.70;31.63;;;9.20;1.00;;;;;;5072017;28;20197;-85
2022/11/15 10:05:57;;;;;;;212.03;32.77;;;9.20;1.00;;;;;;5072025;28;20186;-84
2022/11/15 10:08:47;;;;;;;225.80;30.27;;;9.20;1.00;;;;;;5071056;28;20199;-84
2022/11/15 10:11:19;;;;;;;192.13;29.73;;;9.10;1.00;;;;;;5062048;28;20667;-84
2022/11/15 10:13:49;;;;;;;241.77;29.57;;;9.20;1.00;;;;;;5070855;28;20195;-84
2022/11/15 10:16:37;;;;;;;193.97;29.33;;;9.30;1.00;;;;;;5071097;28;20196;-84
2022/11/15 10:19:11;;;;;;;200.73;29.20;;;9.40;1.00;;;;;;5071168;28;20521;-84
2022/11/15 10:21:49;;;;;;;130.90;27.50;;;9.50;1.00;;;;;;5071402;28;20184;-83
2022/11/15 10:24:21;;;;;;;150.27;29.13;;;9.50;1.00;;;;;;5066133;28;20184;-85
2022/11/15 10:26:49;;;;;;;124.57;32.00;;;9.60;1.00;;;;;;5070158;28;20192;-85
2022/11/15 10:29:21;;;;;;;96.07;27.07;;;9.70;1.00;;;;;;5071704;28;20201;-83
2022/11/15 10:31:48;;;;;;;102.53;28.40;;;9.80;1.00;;;;;;5071467;28;20636;-84
2022/11/15 10:34:18;;;;;;;176.77;28.30;;;9.90;99.90;;;;;;5071028;28;20200;-82
2022/11/15 10:36:46;;;;;;;112.40;25.07;;;10.00;99.90;;;;;;5069668;28;20188;-83
2022/11/15 10:39:14;;;;;;;130.93;25.40;;;10.10;99.90;;;;;;5067132;28;20199;-82
2022/11/15 10:41:43;;;;;;;124.57;24.00;;;10.10;99.90;;;;;;5070371;28;20249;-82
2022/11/15 10:44:24;;;;;;;118.33;25.30;;;10.00;99.90;;;;;;5071167;28;20243;-82
2022/11/15 10:47:07;;;;;;;192.80;26.80;;;10.00;99.90;;;;;;5064623;28;20237;-84
2022/11/15 10:49:35;;;;;;;218.90;25.90;;;9.90;99.90;;;;;;5070154;28;20181;-84
2022/11/15 10:52:05;;;;;;;137.60;24.43;;;9.90;90.50;;;;;;5071491;28;20265;-82
2022/11/15 10:54:38;;;;;;;107.27;24.83;;;9.80;1.00;;;;;;5070189;28;20193;-82
2022/11/15 10:57:09;;;;;;;148.50;26.90;;;9.80;88.70;;;;;;5071069;28;20176;-82
2022/11/15 10:59:39;;;;;;;111.80;24.83;;;9.80;99.90;;;;;;5072184;28;20195;-82
2022/11/15 11:02:39;;;;;;;111.33;24.60;;;9.80;99.90;;;;;;5071368;28;20307;-82
2022/11/15 11:05:26;;;;;;;92.33;25.37;;;9.90;99.90;;;;;;5069777;28;20199;-84
2022/11/15 11:08:01;;;;;;;76.83;23.90;;;10.00;54.50;;;;;;5072130;28;20599;-84
2022/11/15 11:10:29;;;;;;;61.90;24.60;;;10.00;1.00;;;;;;5071259;28;20180;-82
2022/11/15 11:12:56;;;;;;;149.77;27.20;;;10.00;1.00;;;;;;5071403;28;20217;-84
2022/11/15 11:15:30;;;;;;;97.13;25.93;;;10.00;1.00;;;;;;5071563;28;20679;-81
2022/11/15 11:18:08;;;;;;;55.53;26.40;;;10.00;1.00;;;;;;5068734;28;20193;-81
2022/11/15 11:20:42;;;;;;;68.97;27.57;;;10.10;1.00;;;;;;5070007;28;20555;-82
2022/11/15 11:23:37;;;;;;;74.97;26.97;;;10.20;1.00;;;;;;5068175;28;20188;-83
2022/11/15 11:26:19;;;;;;;147.20;27.37;;;10.30;1.00;;;;;;5071724;28;20184;-82
2022/11/15 11:28:55;;;;;;;123.70;26.70;;;10.30;1.00;;;;;;5058040;28;20275;-83
2022/11/15 11:31:35;;;;;;;53.70;26.27;;;10.20;1.00;;;;;;5070081;28;20283;-83
2022/11/15 11:34:14;;;;;;;175.50;27.23;;;10.30;1.00;;;;;;5055552;28;20189;-83
2022/11/15 11:36:50;;;;;;;104.53;25.73;;;10.40;1.00;;;;;;5055172;28;20199;-82
2022/11/15 11:39:28;;;;;;;86.43;25.70;;;10.40;1.00;;;;;;5070484;28;20191;-82
2022/11/15 11:42:03;;;;;;;82.73;26.20;;;10.30;1.00;;;;;;5072285;28;20190;-82
2022/11/15 11:44:47;;;;;;;95.93;26.33;;;10.40;1.00;;;;;;5068928;28;20235;-82
2022/11/15 11:47:24;;;;;;;93.17;26.90;;;10.40;1.00;;;;;;5065492;28;20247;-83
2022/11/15 11:49:52;;;;;;;120.43;28.57;;;10.40;1.00;;;;;;5074071;28;20276;-84
2022/11/15 11:52:26;;;;;;;121.40;29.73;;;10.40;1.00;;;;;;5072588;28;20668;-82
2022/11/15 11:55:03;;;;;;;111.80;29.57;;;10.40;1.00;;;;;;5070988;28;20194;-84
2022/11/15 11:57:42;;;;;;;71.60;27.97;;;10.40;1.00;;;;;;5074592;28;20199;-82
2022/11/15 12:00:19;;;;;;;98.30;27.93;;;10.40;1.00;;;;;;5071308;28;21806;-83
2022/11/15 12:02:55;;;;;;;79.67;26.67;;;10.40;1.00;;;;;;5074228;28;20188;-82
2022/11/15 12:05:31;;;;;;;98.40;26.00;;;10.40;1.00;;;;;;5074013;28;20187;-84
2022/11/15 12:08:05;;;;;;;73.13;26.13;;;10.50;1.00;;;;;;5074158;28;20207;-83
2022/11/15 12:10:35;;;;;;;124.43;28.57;;;10.50;1.00;;;;;;5069965;28;20185;-82
2022/11/15 12:13:08;;;;;;;132.23;26.90;;;10.50;1.00;;;;;;5073864;28;20747;-84
2022/11/15 12:15:42;;;;;;;84.13;25.87;;;10.50;99.90;;;;;;5074248;28;20231;-85
2022/11/15 12:18:15;;;;;;;88.93;27.70;;;10.50;1.00;;;;;;5074690;28;20239;-83
2022/11/15 12:20:52;;;;;;;64.67;24.10;;;10.40;1.00;;;;;;5074228;28;20190;-83
2022/11/15 12:23:24;;;;;;;79.23;25.17;;;10.50;1.00;;;;;;5075938;28;20190;-82
2022/11/15 12:25:56;;;;;;;63.40;24.50;;;10.40;1.00;;;;;;5073989;28;20186;-86
2022/11/15 12:28:34;;;;;;;60.10;25.37;;;10.40;1.00;;;;;;5064973;28;20193;-84
2022/11/15 12:31:05;;;;;;;59.47;24.67;;;10.30;1.00;;;;;;5074779;28;20193;-86
2022/11/15 12:33:40;;;;;;;61.63;24.40;;;10.30;1.00;;;;;;5074160;28;20692;-81
2022/11/15 12:36:12;;;;;;;155.13;26.10;;;10.30;1.00;;;;;;5074379;28;20183;-83
2022/11/15 12:38:55;;;;;;;98.83;26.57;;;10.30;1.00;;;;;;5072989;28;20195;-83
2022/11/15 12:41:23;;;;;;;99.80;25.73;;;10.20;1.00;;;;;;5067896;28;20199;-82
2022/11/15 12:43:51;;;;;;;161.60;24.97;;;10.10;1.00;;;;;;5073054;28;20197;-84
2022/11/15 12:46:44;;;;;;;126.23;24.87;;;10.00;1.00;;;;;;5075030;28;20206;-86
2022/11/15 12:49:46;;;;;;;73.73;24.17;;;9.80;1.00;;;;;;5073908;28;20645;-82
2022/11/15 12:52:14;;;;;;;90.33;24.67;;;9.60;1.00;;;;;;5073041;28;20213;-84
2022/11/15 12:54:59;;;;;;;78.37;23.97;;;9.50;1.00;;;;;;5074032;28;20581;-82
2022/11/15 12:57:36;;;;;;;65.67;24.23;;;9.40;1.00;;;;;;5073349;28;20195;-84
2022/11/15 13:00:22;;;;;;;55.63;23.93;;;9.30;1.00;;;;;;5064537;28;20204;-84
2022/11/15 13:02:49;;;;;;;80.33;25.30;;;9.30;1.00;;;;;;5057194;28;20192;-84
2022/11/15 13:05:56;;;;;;;73.97;24.67;;;9.40;1.00;;;;;;5074764;28;20191;-82